Time;durP1;ratioP1;P1;durP2;ratioP2;P2;SDS_P1;SDS_P2;PMS_P1;PMS_P2;Temp;Humidity;BMP_temperature;BMP_pressure;BME280_temperature;BME280_humidity;BME280_pressure;Samples;Min_cycle;Max_cycle;Signal;HPM_P1;HPM_P2
2022/09/05 00:02:42;;;;;;;5.93;4.00;;;;;;;-148.88;60.27;75297.88;5016491;28;20057;-85
2022/09/05 00:05:45;;;;;;;;;;;;;;;-148.88;60.52;75297.88;5018147;28;20041;-85
2022/09/05 00:08:26;;;;;;;5.75;4.20;;;;;;;-148.88;60.86;75310.06;5039626;28;20379;-85
2022/09/05 00:11:18;;;;;;;5.65;4.30;;;;;;;-148.88;61.32;75314.13;5055148;28;20423;-85
2022/09/05 00:14:07;;;;;;;5.63;3.88;;;;;;;-148.88;61.01;75312.09;5054181;28;20021;-85
2022/09/05 00:17:11;;;;;;;5.90;4.53;;;;;;;-148.88;61.55;75330.38;5039357;28;20033;-85
2022/09/05 00:19:48;;;;;;;9.20;4.60;;;;;;;-148.88;61.47;75330.38;5016244;28;20057;-85
2022/09/05 00:22:32;;;;;;;6.80;4.78;;;;;;;-148.88;62.03;75330.38;5015688;28;20030;-85
2022/09/05 00:25:41;;;;;;;7.45;4.68;;;;;;;-148.88;62.23;75330.38;5016827;28;20105;-85
2022/09/05 00:28:24;;;;;;;5.55;4.93;;;;;;;-148.88;63.03;75348.66;5006182;28;20038;-85
2022/09/05 00:31:07;;;;;;;7.30;4.80;;;;;;;-148.88;62.78;75344.59;5015818;28;20041;-85
2022/09/05 00:36:44;;;;;;;8.45;5.10;;;;;;;-148.88;62.88;75342.56;5033742;28;20565;-86
2022/09/05 00:39:28;;;;;;;7.15;4.80;;;;;;;-148.88;62.92;75342.56;5015264;28;20040;-85
2022/09/05 00:42:10;;;;;;;7.00;5.18;;;;;;;-148.88;62.91;75342.56;5015703;28;20454;-85
2022/09/05 00:45:06;;;;;;;7.85;4.70;;;;;;;-148.88;63.20;75346.63;5016067;28;20033;-85
2022/09/05 00:48:23;;;;;;;6.07;4.70;;;;;;;-148.88;63.30;75350.69;5015152;28;20038;-85
2022/09/05 00:51:13;;;;;;;6.45;4.68;;;;;;;-148.88;63.36;75358.81;5006358;28;20040;-85
2022/09/05 00:54:06;;;;;;;6.35;4.63;;;;;;;-148.88;63.50;75360.84;5015526;28;20033;-85
2022/09/05 00:56:57;;;;;;;5.33;4.50;;;;;;;-148.88;63.71;75371.00;5014978;28;20084;-86
2022/09/05 00:59:56;;;;;;;7.32;4.97;;;;;;;-148.88;64.04;75366.94;5015016;28;20491;-85
2022/09/05 01:02:55;;;;;;;6.78;4.68;;;;;;;-148.88;64.19;75371.00;5014483;28;20036;-84
2022/09/05 01:05:51;;;;;;;5.00;4.47;;;;;;;-148.88;64.35;75379.13;5016131;28;20025;-85
2022/09/05 01:08:37;;;;;;;5.25;4.72;;;;;;;-148.88;64.54;75375.06;5014347;28;20471;-85
2022/09/05 01:11:26;;;;;;;9.00;5.65;;;;;;;-148.88;65.41;75391.31;5013958;28;20072;-85
2022/09/05 01:14:37;;;;;;;6.28;4.72;;;;;;;-148.88;64.96;75379.13;5013733;28;20044;-85
2022/09/05 01:17:25;;;;;;;8.18;5.00;;;;;;;-148.88;65.06;75383.19;5014663;28;20121;-85
2022/09/05 01:20:35;;;;;;;7.35;5.53;;;;;;;-148.88;65.16;75383.19;5013762;28;20026;-85
2022/09/05 01:23:28;;;;;;;6.47;5.43;;;;;;;-148.88;65.38;75389.28;5013961;28;20029;-85
2022/09/05 01:26:55;;;;;;;6.57;5.30;;;;;;;-148.88;65.41;75383.19;5014073;28;20034;-85
2022/09/05 01:29:45;;;;;;;8.13;5.25;;;;;;;-148.88;65.61;75387.25;5014950;28;20270;-86
2022/09/05 01:32:59;;;;;;;6.80;5.07;;;;;;;-148.88;65.54;75389.28;5014951;28;20108;-85
2022/09/05 01:35:43;;;;;;;5.35;4.85;;;;;;;-148.88;65.83;75395.38;5010212;28;20119;-85
2022/09/05 01:38:33;;;;;;;5.97;5.07;;;;;;;-148.88;66.13;75403.50;5015083;28;20026;-85
2022/09/05 01:41:29;;;;;;;6.45;4.85;;;;;;;-148.88;66.62;75413.66;5013968;28;20395;-84
2022/09/05 01:44:27;;;;;;;5.78;4.93;;;;;;;-148.88;66.65;75411.63;5013705;28;20030;-85
2022/09/05 01:47:34;;;;;;;6.82;4.90;;;;;;;-148.88;66.69;75415.69;5014024;28;20120;-85
2022/09/05 01:50:05;;;;;;;6.93;5.28;;;;;;;-148.88;66.92;75417.72;5014360;28;20057;-85
2022/09/05 01:53:10;;;;;;;6.65;4.88;;;;;;;-148.88;66.75;75423.81;5013915;28;20026;-84
2022/09/05 01:56:28;;;;;;;6.00;5.18;;;;;;;-148.88;67.10;75423.81;5014157;28;20028;-85
2022/09/05 01:59:11;;;;;;;7.57;5.88;;;;;;;-148.88;67.14;75429.91;5015670;28;20030;-85
2022/09/05 02:01:55;;;;;;;;;;;;;;;-148.88;67.26;75431.94;5014320;28;20494;-84
2022/09/05 02:04:42;;;;;;;6.57;5.20;;;;;;;-148.88;67.73;75436.00;5014711;28;19909;-85
2022/09/05 02:07:23;;;;;;;6.03;5.32;;;;;;;-148.88;67.71;75444.13;5013378;28;20045;-85
2022/09/05 02:10:15;;;;;;;6.15;5.55;;;;;;;-148.88;67.98;75450.22;5013513;28;20022;-85
2022/09/05 02:13:02;;;;;;;6.15;5.50;;;;;;;-148.88;68.43;75452.25;5013007;28;20040;-84
2022/09/05 02:15:38;;;;;;;6.53;5.43;;;;;;;-148.88;68.33;75446.16;5014545;28;20029;-85
2022/09/05 02:18:11;;;;;;;5.78;5.15;;;;;;;-148.88;68.69;75458.34;5013089;28;20507;-85
2022/09/05 02:20:39;;;;;;;6.72;5.90;;;;;;;-148.88;68.67;75458.34;5012565;28;20033;-85
2022/09/05 02:23:14;;;;;;;7.25;4.90;;;;;;;-148.88;68.96;75462.41;5014556;28;20479;-84
2022/09/05 02:26:02;;;;;;;6.97;5.10;;;;;;;-148.88;68.71;75460.38;5013892;28;20022;-84
2022/09/05 02:28:43;;;;;;;5.68;4.78;;;;;;;-148.88;69.15;75464.44;5012885;28;20029;-85
2022/09/05 02:31:22;;;;;;;5.80;5.10;;;;;;;-148.88;69.37;75460.38;5014120;28;20084;-85
2022/09/05 02:34:02;;;;;;;7.47;5.40;;;;;;;-148.88;69.63;75468.50;5013383;28;20022;-85
2022/09/05 02:36:30;;;;;;;6.40;5.20;;;;;;;-148.88;69.45;75468.50;5014091;28;20041;-85
2022/09/05 02:39:01;;;;;;;6.80;5.38;;;;;;;-148.88;69.88;75472.56;5014053;28;20403;-85
2022/09/05 02:41:32;;;;;;;7.70;4.65;;;;;;;-148.88;69.98;75472.56;5013839;28;20029;-84
2022/09/05 02:44:29;;;;;;;6.85;5.53;;;;;;;-148.88;69.94;75472.56;5013528;28;20208;-84
2022/09/05 02:47:04;;;;;;;6.30;5.32;;;;;;;-148.88;70.01;75478.66;5013875;28;20073;-85
2022/09/05 02:50:03;;;;;;;5.72;5.13;;;;;;;-148.88;69.95;75478.66;5012564;28;20064;-84
2022/09/05 02:52:31;;;;;;;7.05;5.13;;;;;;;-148.88;69.72;75480.69;5013641;28;20029;-83
2022/09/05 02:54:58;;;;;;;5.20;4.70;;;;;;;-148.88;70.26;75488.81;5012583;28;20472;-85
2022/09/05 02:57:42;;;;;;;6.53;5.32;;;;;;;-148.88;70.40;75488.81;5013692;28;20487;-84
2022/09/05 03:00:18;;;;;;;7.05;5.45;;;;;;;-148.88;70.84;75496.94;5012284;28;20032;-87
2022/09/05 03:02:52;;;;;;;7.22;5.82;;;;;;;-148.88;70.77;75498.97;5014195;28;20476;-83
2022/09/05 03:05:39;;;;;;;7.22;5.82;;;;;;;-148.88;71.08;75501.00;5013792;28;20395;-86
2022/09/05 03:08:16;;;;;;;7.13;5.63;;;;;;;-148.88;71.00;75501.00;5012777;28;20084;-84
2022/09/05 03:10:59;;;;;;;8.52;6.20;;;;;;;-148.88;71.23;75496.94;5013601;28;20388;-84
2022/09/05 03:14:02;;;;;;;8.27;5.90;;;;;;;-148.88;71.53;75503.03;5013854;28;20034;-85
2022/09/05 03:16:48;;;;;;;9.90;5.90;;;;;;;-148.88;71.70;75513.19;5013324;28;20049;-86
2022/09/05 03:19:32;;;;;;;6.30;5.70;;;;;;;-148.88;71.90;75511.16;5012076;28;20106;-85
2022/09/05 03:22:27;;;;;;;6.85;5.35;;;;;;;-148.88;71.92;75513.19;5013293;28;20022;-85
2022/09/05 03:25:17;;;;;;;8.65;5.72;;;;;;;-148.88;72.22;75521.31;5012406;28;20040;-88
2022/09/05 03:28:03;;;;;;;6.00;5.40;;;;;;;-148.88;72.30;75521.31;5013220;28;20076;-86
2022/09/05 03:30:37;;;;;;;6.50;5.75;;;;;;;-148.88;72.70;75529.44;5013386;28;20030;-88
2022/09/05 03:33:42;;;;;;;7.60;5.85;;;;;;;-148.88;73.02;75527.41;5011428;28;20428;-88
2022/09/05 03:36:26;;;;;;;6.07;5.43;;;;;;;-148.88;72.50;75519.28;5011759;28;20113;-84
2022/09/05 03:39:10;;;;;;;6.30;5.57;;;;;;;-148.88;72.57;75527.41;5012985;28;20029;-83
2022/09/05 03:41:57;;;;;;;;;;;;;;;-148.88;72.86;75525.38;5013622;28;20129;-83
2022/09/05 03:44:42;;;;;;;7.43;6.13;;;;;;;-148.88;72.50;75519.28;5013198;28;19960;-84
2022/09/05 03:47:17;;;;;;;7.40;5.55;;;;;;;-148.88;72.83;75521.31;5013187;28;20045;-83
2022/09/05 03:50:11;;;;;;;6.70;5.75;;;;;;;-148.88;73.02;75517.25;5011834;28;20453;-83
2022/09/05 03:53:01;;;;;;;5.80;5.20;;;;;;;-148.88;72.79;75513.19;5012555;28;20022;-83
2022/09/05 03:56:04;;;;;;;7.05;5.70;;;;;;;-148.88;72.53;75511.16;5013462;28;20473;-84
2022/09/05 03:58:46;;;;;;;9.38;6.47;;;;;;;-148.88;72.55;75507.09;5012079;28;20030;-83
2022/09/05 04:01:18;;;;;;;8.43;6.72;;;;;;;-148.88;72.65;75501.00;5013444;28;20022;-84
2022/09/05 04:03:59;;;;;;;8.20;7.40;;;;;;;-148.88;72.41;75507.09;5012607;28;20022;-84
2022/09/05 04:07:02;;;;;;;8.93;6.00;;;;;;;-148.88;72.32;75507.09;5011847;28;20465;-84
2022/09/05 04:09:54;;;;;;;6.32;5.50;;;;;;;-148.88;72.38;75505.06;5011763;28;20049;-84
2022/09/05 04:12:56;;;;;;;9.20;5.82;;;;;;;-148.88;72.38;75511.16;5012785;28;20034;-85
2022/09/05 04:15:31;;;;;;;6.63;6.00;;;;;;;-148.88;72.53;75511.16;5000940;28;20099;-85
2022/09/05 04:18:01;;;;;;;8.27;6.30;;;;;;;-148.88;72.48;75519.28;5012871;28;20396;-85
2022/09/05 04:20:41;;;;;;;7.07;5.68;;;;;;;-148.88;72.74;75529.44;5013289;28;20097;-86
2022/09/05 04:23:28;;;;;;;7.00;6.03;;;;;;;-148.88;73.00;75537.56;5012784;28;20109;-86
2022/09/05 04:26:34;;;;;;;7.45;5.93;;;;;;;-148.88;73.48;75545.69;5011823;28;20492;-84
2022/09/05 04:29:35;;;;;;;7.55;6.45;;;;;;;-148.88;73.39;75547.72;5013279;28;20021;-86
2022/09/05 04:33:02;;;;;;;8.77;6.28;;;;;;;-148.88;73.64;75549.75;5013072;28;20097;-87
2022/09/05 04:35:36;;;;;;;6.63;5.60;;;;;;;-148.88;73.56;75561.94;5004965;28;20030;-86
2022/09/05 04:38:35;;;;;;;8.65;5.75;;;;;;;-148.88;73.71;75555.84;5010339;28;20128;-83
2022/09/05 04:41:10;;;;;;;6.72;6.00;;;;;;;-148.88;73.87;75566.00;5009342;28;20125;-87
2022/09/05 04:43:42;;;;;;;7.35;5.93;;;;;;;-148.88;74.23;75570.03;5012552;28;20021;-88
2022/09/05 04:46:15;;;;;;;7.90;5.88;;;;;;;-148.88;74.30;75570.03;5016490;28;20022;-89
2022/09/05 04:48:57;;;;;;;9.07;6.40;;;;;;;-148.88;74.33;75570.03;5025116;28;20493;-90
2022/09/05 04:52:08;;;;;;;7.65;6.32;;;;;;;-148.88;74.66;75580.22;5017598;28;20037;-89
2022/09/05 04:54:56;;;;;;;8.82;5.72;;;;;;;-148.88;74.60;75586.31;5019654;28;20038;-91
2022/09/05 04:57:30;;;;;;;9.38;5.63;;;;;;;-148.88;75.20;75590.34;5018313;28;20049;-91
2022/09/05 05:00:01;;;;;;;7.25;5.97;;;;;;;-148.88;75.14;75592.38;5016875;28;20029;-90
2022/09/05 05:03:04;;;;;;;7.55;5.90;;;;;;;-148.88;75.09;75588.34;5016007;28;20384;-90
2022/09/05 05:05:51;;;;;;;7.70;5.88;;;;;;;-148.88;75.05;75590.34;5015406;28;20614;-90
2022/09/05 05:08:29;;;;;;;7.53;5.90;;;;;;;-148.88;74.78;75590.34;5016711;28;20075;-89
2022/09/05 05:10:59;;;;;;;6.18;5.43;;;;;;;-148.88;74.63;75582.22;5018323;28;20164;-88
2022/09/05 05:13:39;;;;;;;8.15;5.80;;;;;;;-148.88;74.60;75582.22;5018642;28;20042;-89
2022/09/05 05:16:42;;;;;;;7.85;6.15;;;;;;;-148.88;74.56;75574.13;5019969;28;20033;-87
2022/09/05 05:19:23;;;;;;;8.10;5.63;;;;;;;-148.88;74.58;75572.09;5018558;28;20523;-89
2022/09/05 05:21:52;;;;;;;7.68;5.80;;;;;;;-148.88;74.28;75559.91;5019778;28;20059;-88
2022/09/05 05:24:24;;;;;;;8.23;5.75;;;;;;;-148.88;74.14;75557.88;5019581;28;20026;-89
2022/09/05 05:27:15;;;;;;;6.68;5.82;;;;;;;-148.88;73.83;75547.72;5019700;28;20026;-88
2022/09/05 05:29:48;;;;;;;11.32;5.90;;;;;;;-148.88;73.82;75539.59;5020042;28;20064;-88
2022/09/05 05:32:18;;;;;;;6.35;5.32;;;;;;;-148.88;73.43;75537.56;5018592;28;20022;-89
2022/09/05 05:34:49;;;;;;;8.20;6.10;;;;;;;-148.88;73.36;75533.50;5018969;28;20033;-88
2022/09/05 05:37:35;;;;;;;7.13;5.50;;;;;;;-148.88;73.07;75537.56;5019545;28;20098;-89
2022/09/05 05:40:20;;;;;;;6.07;5.47;;;;;;;-148.88;73.34;75543.66;5019563;28;20018;-88
2022/09/05 05:42:46;;;;;;;6.60;5.68;;;;;;;-148.88;73.32;75541.63;5018997;28;20026;-89
2022/09/05 05:45:23;;;;;;;7.93;6.00;;;;;;;-148.88;73.47;75539.59;5019592;28;20029;-89
2022/09/05 05:48:01;;;;;;;7.32;5.85;;;;;;;-148.88;73.47;75541.63;5019013;28;20029;-88
2022/09/05 05:50:38;;;;;;;6.50;5.45;;;;;;;-148.88;73.15;75539.59;5019118;28;20026;-89
2022/09/05 05:53:22;;;;;;;8.75;5.88;;;;;;;-148.88;73.42;75543.66;5019599;28;20105;-89
2022/09/05 05:56:23;;;;;;;8.52;6.53;;;;;;;-148.88;73.60;75545.69;5018536;28;20026;-89
2022/09/05 05:59:13;;;;;;;8.23;5.43;;;;;;;-148.88;73.67;75545.69;5018502;28;20037;-89
2022/09/05 06:02:15;;;;;;;8.32;6.03;;;;;;;-148.88;73.62;75545.69;5018610;28;20105;-89
2022/09/05 06:04:50;;;;;;;9.38;6.05;;;;;;;-148.88;73.42;75541.63;5017162;28;20022;-88
2022/09/05 06:07:36;;;;;;;6.85;5.90;;;;;;;-148.88;73.31;75537.56;5018413;28;20030;-89
2022/09/05 06:10:28;;;;;;;6.38;5.38;;;;;;;-148.88;73.40;75529.44;5019061;28;20029;-88
2022/09/05 06:13:10;;;;;;;7.43;5.75;;;;;;;-148.88;73.28;75529.44;5017016;28;20025;-88
2022/09/05 06:15:56;;;;;;;9.98;6.00;;;;;;;-148.88;73.10;75525.38;5018463;28;20029;-88
2022/09/05 06:18:50;;;;;;;7.82;5.55;;;;;;;-148.88;73.54;75517.25;5018521;28;20515;-88
2022/09/05 06:21:22;;;;;;;;;;;;;;;-148.88;73.34;75511.16;5017885;28;20498;-89
2022/09/05 06:24:25;;;;;;;6.60;5.50;;;;;;;-148.88;73.09;75505.06;5018143;28;19963;-88
2022/09/05 06:27:22;;;;;;;7.07;6.18;;;;;;;-148.88;72.82;75496.94;5017256;28;20032;-89
2022/09/05 06:30:09;;;;;;;8.00;6.53;;;;;;;-148.88;72.59;75490.84;5018858;28;20045;-88
2022/09/05 06:33:13;;;;;;;8.68;6.13;;;;;;;-148.88;72.39;75484.75;5018874;28;20037;-88
2022/09/05 06:35:38;;;;;;;6.20;5.60;;;;;;;-148.88;72.40;75484.75;5018714;28;20065;-89
2022/09/05 06:38:21;;;;;;;8.77;5.97;;;;;;;-148.88;72.30;75472.56;5017421;28;20037;-88
2022/09/05 06:41:06;;;;;;;6.47;5.78;;;;;;;-148.88;72.13;75462.41;5019037;28;20255;-89
2022/09/05 06:43:56;;;;;;;9.80;6.25;;;;;;;-148.88;71.65;75452.25;5018697;28;20026;-88
2022/09/05 06:46:34;;;;;;;7.88;6.07;;;;;;;-148.88;71.39;75440.06;5019659;28;20030;-88
2022/09/05 06:49:18;;;;;;;8.63;5.65;;;;;;;-148.88;71.66;75436.00;5019635;28;20030;-89
2022/09/05 06:52:05;;;;;;;9.20;5.90;;;;;;;-148.88;71.38;75427.88;5019409;28;20022;-88
2022/09/05 06:54:58;;;;;;;7.93;5.50;;;;;;;-148.88;71.35;75407.56;5018216;28;20109;-88
2022/09/05 06:57:32;;;;;;;6.88;5.07;;;;;;;-148.88;71.16;75397.41;5017187;28;20102;-89
2022/09/05 07:00:21;;;;;;;7.53;5.38;;;;;;;-148.88;71.60;75389.28;5018527;28;20113;-89
2022/09/05 07:03:08;;;;;;;5.90;5.30;;;;;;;-148.88;71.03;75366.94;5018096;28;20025;-89
2022/09/05 07:06:03;;;;;;;6.70;5.05;;;;;;;-148.88;70.18;75352.72;5018902;28;20026;-89
2022/09/05 07:09:04;;;;;;;8.55;5.43;;;;;;;-148.88;70.69;75336.47;5018010;28;20033;-89
2022/09/05 07:12:01;;;;;;;8.70;5.25;;;;;;;-148.88;70.56;75316.16;5017128;28;20048;-89
2022/09/05 07:14:33;;;;;;;6.15;4.93;;;;;;;-148.88;69.62;75299.91;5018449;28;20100;-89
2022/09/05 07:17:14;;;;;;;6.80;4.38;;;;;;;-148.88;69.51;75281.66;5018826;28;20061;-89
2022/09/05 07:19:57;;;;;;;11.48;4.57;;;;;;;-148.88;69.11;75265.41;5017969;28;20044;-89
2022/09/05 07:22:31;;;;;;;5.90;4.47;;;;;;;-148.88;69.21;75253.22;5018343;28;20022;-88
2022/09/05 07:25:01;;;;;;;6.18;4.68;;;;;;;-148.88;67.24;75232.91;5017287;28;20033;-88
2022/09/05 07:27:40;;;;;;;8.38;4.28;;;;;;;-148.88;67.73;75224.78;5017961;28;20021;-88
2022/09/05 07:30:06;;;;;;;6.13;4.00;;;;;;;-148.88;66.59;75212.59;5018265;28;20049;-89
2022/09/05 07:32:41;;;;;;;4.25;3.15;;;;;;;-148.88;65.58;75198.38;5017036;28;20104;-88
2022/09/05 07:35:20;;;;;;;4.65;3.58;;;;;;;-148.88;64.93;75184.16;5018298;28;20026;-89
2022/09/05 07:37:54;;;;;;;5.15;3.58;;;;;;;-148.88;65.00;75178.06;5017922;28;20034;-88
2022/09/05 07:40:25;;;;;;;7.68;3.30;;;;;;;-148.88;64.20;75165.88;5017347;28;20030;-88
2022/09/05 07:42:59;;;;;;;6.40;3.30;;;;;;;-148.88;63.45;75155.72;5018191;28;20029;-88
2022/09/05 07:45:27;;;;;;;4.72;3.20;;;;;;;-148.88;63.17;75151.66;5017610;28;20026;-89
2022/09/05 07:48:00;;;;;;;3.83;2.92;;;;;;;-148.88;62.84;75155.72;5016370;28;20571;-89
2022/09/05 07:50:27;;;;;;;5.28;3.42;;;;;;;-148.88;63.43;75147.59;5019076;28;20400;-88
2022/09/05 07:52:56;;;;;;;4.85;2.97;;;;;;;-148.88;63.04;75143.53;5016895;28;20022;-89
2022/09/05 07:55:24;;;;;;;5.25;3.33;;;;;;;-148.88;62.57;75135.41;5018227;28;20026;-89
2022/09/05 07:57:53;;;;;;;7.50;3.55;;;;;;;-148.88;61.60;75127.28;5015285;28;20034;-89
2022/09/05 08:00:22;;;;;;;5.15;3.38;;;;;;;-148.88;61.75;75123.22;5016570;28;20026;-89
2022/09/05 08:02:48;;;;;;;6.45;3.40;;;;;;;-148.88;61.82;75102.91;5017938;28;20026;-90
2022/09/05 08:05:18;;;;;;;4.32;3.20;;;;;;;-148.88;61.21;75082.63;5018002;28;20034;-89
2022/09/05 08:07:49;;;;;;;4.75;3.10;;;;;;;-148.88;61.09;75068.41;5017627;28;20352;-90
2022/09/05 08:10:22;;;;;;;4.35;2.80;;;;;;;-148.88;60.75;75054.19;5018831;28;20116;-90
2022/09/05 08:13:03;;;;;;;8.40;3.13;;;;;;;-148.88;59.96;75029.81;5016104;28;20105;-90
2022/09/05 08:15:29;;;;;;;6.30;3.00;;;;;;;-148.88;59.02;75017.63;5017961;28;20026;-90
2022/09/05 08:18:11;;;;;;;4.90;3.10;;;;;;;-148.88;57.85;74993.25;5019676;28;20026;-89
2022/09/05 08:21:04;;;;;;;5.45;2.80;;;;;;;-148.88;57.66;74981.06;5022409;28;20024;-89
2022/09/05 08:23:32;;;;;;;4.57;3.15;;;;;;;-148.88;57.83;74964.81;5023275;28;20025;-89
2022/09/05 08:26:24;;;;;;;6.93;2.70;;;;;;;-148.88;57.53;74940.47;5020791;28;20034;-89
2022/09/05 08:29:31;;;;;;;5.25;3.13;;;;;;;-148.88;56.85;74932.34;5021692;28;20109;-89
2022/09/05 08:32:11;;;;;;;7.35;3.45;;;;;;;-148.88;57.21;74907.97;5022886;28;20026;-89
2022/09/05 08:35:05;;;;;;;6.90;2.90;;;;;;;-148.88;57.12;74885.63;5020981;28;20403;-89
2022/09/05 08:37:31;;;;;;;3.97;2.80;;;;;;;-148.88;55.49;74867.34;5021549;28;20029;-89
2022/09/05 08:40:11;;;;;;;6.03;2.90;;;;;;;-148.88;56.62;74855.16;5022037;28;20026;-89
2022/09/05 08:43:07;;;;;;;4.70;2.78;;;;;;;-148.88;55.10;74830.78;5021200;28;20026;-89
2022/09/05 08:45:42;;;;;;;3.50;2.80;;;;;;;-148.88;54.19;74810.50;5020610;28;20029;-89
2022/09/05 08:48:07;;;;;;;5.38;2.60;;;;;;;-148.88;54.01;74786.13;5020404;28;20024;-89
2022/09/05 08:51:00;;;;;;;5.67;2.83;;;;;;;-148.88;54.27;74769.88;5019838;28;20116;-89
2022/09/05 08:53:47;;;;;;;7.68;2.60;;;;;;;-148.88;53.89;74739.41;5018606;28;20274;-89
2022/09/05 08:56:17;;;;;;;4.00;2.35;;;;;;;-148.88;53.94;74713.00;5020212;28;20045;-89
2022/09/05 08:58:56;;;;;;;6.72;2.85;;;;;;;-148.88;53.28;74684.59;5019975;28;20080;-90
2022/09/05 09:01:33;;;;;;;4.85;2.60;;;;;;;-148.88;51.09;74658.19;5020771;28;20128;-89
2022/09/05 09:04:22;;;;;;;4.10;2.53;;;;;;;-148.88;50.43;74611.47;5018719;28;20026;-90
2022/09/05 09:07:09;;;;;;;5.60;2.30;;;;;;;-148.88;50.74;74599.28;5019401;28;20026;-89
2022/09/05 09:09:53;;;;;;;6.68;2.75;;;;;;;-148.88;48.68;74572.91;5020288;28;20427;-89
2022/09/05 09:12:49;;;;;;;4.05;2.38;;;;;;;-148.88;49.76;74538.38;5019663;28;20018;-89
2022/09/05 09:15:35;;;;;;;3.22;1.90;;;;;;;-148.88;47.33;74518.06;5020470;28;20036;-90
2022/09/05 09:18:11;;;;;;;6.10;2.08;;;;;;;-148.88;46.56;74485.59;5019630;28;20022;-89
2022/09/05 09:21:21;;;;;;;6.13;2.17;;;;;;;-148.88;46.02;74461.22;5020140;28;20112;-89
2022/09/05 09:24:16;;;;;;;4.07;2.10;;;;;;;-148.88;45.42;74449.03;5019582;28;20030;-90
2022/09/05 09:26:54;;;;;;;4.88;2.28;;;;;;;-148.88;44.87;74410.47;5019363;28;20032;-89
2022/09/05 09:29:20;;;;;;;4.35;2.17;;;;;;;-148.88;44.55;74386.09;5018903;28;20033;-89
2022/09/05 09:32:25;;;;;;;5.68;2.00;;;;;;;-148.88;43.77;74345.47;5017260;28;20088;-89
2022/09/05 09:34:55;;;;;;;5.88;2.42;;;;;;;-148.88;43.56;74321.13;5018415;28;20037;-88
2022/09/05 09:37:49;;;;;;;6.18;2.28;;;;;;;-148.88;42.28;74306.91;5018971;28;20401;-89
2022/09/05 09:40:42;;;;;;;3.58;2.00;;;;;;;-148.88;41.76;74282.53;5018204;28;20021;-89
2022/09/05 09:43:22;;;;;;;4.73;2.20;;;;;;;-148.88;42.16;74241.94;5017507;28;20455;-89
2022/09/05 09:46:20;;;;;;;4.78;2.00;;;;;;;-148.88;40.95;74209.44;5017496;28;20034;-89
2022/09/05 09:49:14;;;;;;;5.00;2.03;;;;;;;-148.88;40.54;74193.19;5018823;28;20053;-89
2022/09/05 09:52:07;;;;;;;3.05;1.85;;;;;;;-148.88;39.07;74197.25;5016214;28;20033;-88
2022/09/05 09:55:06;;;;;;;3.53;1.58;;;;;;;-148.88;39.44;74181.00;5016772;28;20021;-89
2022/09/05 09:57:52;;;;;;;3.35;1.70;;;;;;;-148.88;39.22;74158.69;5018516;28;20029;-88
2022/09/05 10:00:21;;;;;;;3.35;1.80;;;;;;;-148.88;37.81;74144.47;5017693;28;20033;-89
2022/09/05 10:03:26;;;;;;;4.13;2.13;;;;;;;-148.88;39.12;74124.16;5016741;28;20033;-89
2022/09/05 10:06:30;;;;;;;2.88;1.60;;;;;;;-148.88;38.45;74107.91;5016668;28;20443;-89
2022/09/05 10:09:11;;;;;;;3.25;2.00;;;;;;;-148.88;38.19;74099.78;5015036;28;20029;-88
2022/09/05 10:11:50;;;;;;;3.50;1.80;;;;;;;-148.88;37.85;74087.63;5016709;28;20017;-88
2022/09/05 10:14:33;;;;;;;2.83;2.10;;;;;;;-148.88;37.05;74061.22;5016864;28;20561;-88
2022/09/05 10:17:09;;;;;;;3.10;2.00;;;;;;;-148.88;38.09;74065.28;5017414;28;20439;-88
2022/09/05 10:19:46;;;;;;;3.35;1.90;;;;;;;-148.88;37.13;74109.94;5017707;28;20036;-89
2022/09/05 10:22:37;;;;;;;7.07;2.00;;;;;;;-148.88;37.32;74047.00;5017753;28;20053;-88
2022/09/05 10:25:40;;;;;;;3.50;1.70;;;;;;;-148.88;36.45;74014.53;5017211;28;20469;-89
2022/09/05 10:28:34;;;;;;;3.35;1.88;;;;;;;-148.88;35.83;74030.75;5016790;28;20030;-89
2022/09/05 10:31:18;;;;;;;3.35;1.95;;;;;;;-148.88;36.14;73971.88;5017226;28;20022;-89
2022/09/05 10:33:58;;;;;;;3.75;2.10;;;;;;;-148.88;35.81;73965.78;5015388;28;20116;-88
2022/09/05 10:36:30;;;;;;;2.28;1.83;;;;;;;-148.88;35.48;73943.47;5016449;28;20030;-89
2022/09/05 10:39:14;;;;;;;2.72;2.05;;;;;;;-148.88;35.09;73925.19;5016985;28;20047;-89
2022/09/05 10:41:49;;;;;;;2.53;1.98;;;;;;;-148.88;35.05;73953.63;5017228;28;20041;-89
2022/09/05 10:44:26;;;;;;;3.00;1.85;;;;;;;-148.88;35.10;73977.97;5015726;28;20449;-89
2022/09/05 10:47:22;;;;;;;3.40;1.90;;;;;;;-148.88;34.79;73925.19;5014809;28;20033;-88
2022/09/05 10:49:49;;;;;;;3.40;1.90;;;;;;;-148.88;34.91;73977.97;5016457;28;20022;-89
2022/09/05 10:52:34;;;;;;;3.50;2.13;;;;;;;-148.88;35.15;73965.78;5017429;28;20029;-89
2022/09/05 10:55:18;;;;;;;2.97;2.03;;;;;;;-148.88;35.79;73984.06;5016357;28;20421;-89
2022/09/05 10:57:53;;;;;;;5.57;1.83;;;;;;;-148.88;36.08;73949.56;5016067;28;20511;-88
2022/09/05 11:00:42;;;;;;;4.90;2.10;;;;;;;-148.88;35.36;73943.47;5015868;28;20495;-89
2022/09/05 11:03:17;;;;;;;6.32;2.38;;;;;;;-148.88;35.22;73945.50;5016503;28;20034;-88
2022/09/05 11:05:52;;;;;;;2.97;1.70;;;;;;;-148.88;34.42;73921.13;5015613;28;20076;-89
2022/09/05 11:08:37;;;;;;;3.67;2.00;;;;;;;-148.88;34.67;73915.03;5015935;28;20029;-89
2022/09/05 11:11:17;;;;;;;3.20;1.80;;;;;;;-148.88;35.38;73927.22;5014879;28;20117;-90
2022/09/05 11:13:53;;;;;;;3.65;2.13;;;;;;;-148.88;34.96;73937.38;5015008;28;20022;-88
2022/09/05 11:16:44;;;;;;;2.55;1.50;;;;;;;-148.88;34.69;73888.66;5015681;28;20029;-88
2022/09/05 11:19:30;;;;;;;4.70;1.70;;;;;;;-148.88;34.34;73937.38;5015310;28;20018;-89
2022/09/05 11:22:04;;;;;;;3.53;1.80;;;;;;;-148.88;34.79;73919.09;5015376;28;20488;-88
2022/09/05 11:24:42;;;;;;;4.88;2.10;;;;;;;-148.88;34.69;73921.13;5014783;28;20029;-89
2022/09/05 11:27:14;;;;;;;3.70;2.05;;;;;;;-148.88;34.89;73898.78;5014712;28;20026;-89
2022/09/05 11:29:47;;;;;;;2.92;1.95;;;;;;;-148.88;33.86;73929.25;5013702;28;20113;-89
2022/09/05 11:32:30;;;;;;;4.75;2.00;;;;;;;-148.88;34.64;73949.56;5015568;28;20373;-89
2022/09/05 11:35:11;;;;;;;4.60;2.25;;;;;;;-148.88;34.85;73957.69;5013925;28;20033;-89
2022/09/05 11:38:07;;;;;;;4.15;1.80;;;;;;;-148.88;34.81;73969.84;5014847;28;20042;-88
2022/09/05 11:40:50;;;;;;;4.50;1.83;;;;;;;-148.88;35.35;74014.53;5015358;28;20076;-88
2022/09/05 11:43:33;;;;;;;3.37;1.70;;;;;;;-148.88;35.12;73986.09;5014530;28;20025;-89
2022/09/05 11:46:25;;;;;;;2.22;1.65;;;;;;;-148.88;34.63;73969.84;5014135;28;20555;-89
2022/09/05 11:49:06;;;;;;;2.72;1.63;;;;;;;-148.88;34.78;73986.09;5014225;28;20033;-89
2022/09/05 11:52:16;;;;;;;3.90;1.60;;;;;;;-148.88;34.89;73937.38;5014798;28;20057;-89
2022/09/05 11:55:08;;;;;;;3.15;1.58;;;;;;;-148.88;34.73;73862.25;5009748;28;20061;-88
2022/09/05 11:57:43;;;;;;;4.15;1.80;;;;;;;-148.88;33.64;73846.00;5018389;28;20510;-88
2022/09/05 12:00:17;;;;;;;4.28;1.80;;;;;;;-148.88;34.24;73811.50;5018452;28;20033;-88
2022/09/05 12:03:15;;;;;;;3.70;1.70;;;;;;;-148.88;33.88;73860.22;5018031;28;20072;-89
2022/09/05 12:06:07;;;;;;;31.48;7.68;;;;;;;-148.88;33.39;73835.84;5017404;28;20491;-93
2022/09/05 12:09:10;;;;;;;2.20;1.50;;;;;;;-148.88;33.13;73811.50;5014927;28;20439;-92
2022/09/05 12:12:22;;;;;;;2.30;1.70;;;;;;;-148.88;33.48;73801.34;5017410;28;20022;-91
2022/09/05 12:15:16;;;;;;;5.43;1.70;;;;;;;-148.88;33.04;73797.28;5018534;28;20020;-91
2022/09/05 12:17:50;;;;;;;2.90;1.70;;;;;;;-148.88;33.37;73823.69;5017364;28;20481;-89
2022/09/05 12:20:25;;;;;;;5.68;1.73;;;;;;;-148.88;33.55;73797.28;5020512;28;20041;-89
2022/09/05 12:23:05;;;;;;;4.60;1.77;;;;;;;-148.88;33.45;73797.28;5017307;28;20400;-88
2022/09/05 12:25:39;;;;;;;3.63;2.08;;;;;;;-148.88;33.62;73752.63;5017310;28;20026;-89
2022/09/05 12:28:14;;;;;;;4.18;1.80;;;;;;;-148.88;33.28;73732.31;5016745;28;20026;-89
2022/09/05 12:30:41;;;;;;;7.10;2.63;;;;;;;-148.88;32.55;73734.34;5017037;28;20484;-88
2022/09/05 12:33:12;;;;;;;3.08;1.80;;;;;;;-148.88;32.37;73693.75;5016549;28;20105;-88
2022/09/05 12:35:47;;;;;;;5.55;1.90;;;;;;;-148.88;32.18;73697.81;5016219;28;20023;-88
2022/09/05 12:38:47;;;;;;;3.58;1.77;;;;;;;-148.88;32.01;73685.63;5015150;28;20109;-88
2022/09/05 12:41:25;;;;;;;2.47;1.35;;;;;;;-148.88;32.22;73726.22;5016309;28;20061;-89